RAM936R GMMN-LSZH
Flight info
| Callsign | RAM936R |
|---|---|
| Flight time | 2h 45m |
| Altitude | 36000 |
| Route | TOLSI UG5 KORIS L27 MAR DCT ALCOL N871 TOPTU DCT TOU DCT GAI DCT MEN DCT NINUN DCT LATAM DCT ETREK DCT LTP DCT SOPLO DCT OMASI DCT KINNI DCT LAMUR DCT GUDAX Z57 DOPIL |
| Aircraft | B738/M-SDE2E3FGHIRWXY/LB1 |
Departure
| Time | 2026-04-26 08:39 |
|---|---|
| Airport | Mohammed V International Airport (GMMN) |
Arrival
| Time | 2026-04-26 11:25 |
|---|---|
| Airport | Zürich Airport (LSZH) |
| Time | Latitude | Longitude | Altitude | Speed | Heading |
|---|---|---|---|---|---|
| 2026-04-26 08:22 | 33.37563 | -7.58342 | 648 ft | 0 kts | 74° |
| 2026-04-26 08:27 | 33.37563 | -7.58343 | 648 ft | 0 kts | 74° |
| 2026-04-26 08:27 | 33.37561 | -7.58353 | 648 ft | 2 kts | 74° |
| 2026-04-26 08:27 | 33.37557 | -7.58371 | 647 ft | 2 kts | 79° |
| 2026-04-26 08:28 | 33.37557 | -7.58389 | 647 ft | 2 kts | 100° |
| 2026-04-26 08:28 | 33.37561 | -7.58406 | 647 ft | 2 kts | 117° |
| 2026-04-26 08:28 | 33.37569 | -7.58420 | 647 ft | 2 kts | 134° |
| 2026-04-26 08:28 | 33.37581 | -7.58431 | 646 ft | 2 kts | 152° |
| 2026-04-26 08:29 | 33.37590 | -7.58436 | 646 ft | 0 kts | 163° |
| 2026-04-26 08:29 | 33.37596 | -7.58438 | 646 ft | 0 kts | 165° |
| 2026-04-26 08:32 | 33.37590 | -7.58436 | 646 ft | 2 kts | 165° |
| 2026-04-26 08:32 | 33.37552 | -7.58424 | 647 ft | 8 kts | 164° |
| 2026-04-26 08:32 | 33.37479 | -7.58399 | 648 ft | 12 kts | 163° |
| 2026-04-26 08:33 | 33.37399 | -7.58371 | 648 ft | 11 kts | 163° |
| 2026-04-26 08:33 | 33.37326 | -7.58345 | 648 ft | 10 kts | 163° |
| 2026-04-26 08:33 | 33.37248 | -7.58318 | 648 ft | 13 kts | 163° |
| 2026-04-26 08:33 | 33.37148 | -7.58285 | 648 ft | 17 kts | 166° |
| 2026-04-26 08:34 | 33.37068 | -7.58259 | 646 ft | 17 kts | 163° |
| 2026-04-26 08:34 | 33.36930 | -7.58267 | 645 ft | 14 kts | 273° |
| 2026-04-26 08:34 | 33.36923 | -7.58339 | 645 ft | 13 kts | 255° |
| 2026-04-26 08:34 | 33.36859 | -7.58463 | 645 ft | 14 kts | 181° |
| 2026-04-26 08:35 | 33.36749 | -7.58425 | 645 ft | 18 kts | 162° |
| 2026-04-26 08:35 | 33.36630 | -7.58383 | 646 ft | 16 kts | 166° |
| 2026-04-26 08:35 | 33.36510 | -7.58347 | 648 ft | 18 kts | 163° |
| 2026-04-26 08:35 | 33.36374 | -7.58299 | 650 ft | 22 kts | 163° |
| 2026-04-26 08:36 | 33.36212 | -7.58244 | 651 ft | 26 kts | 164° |
| 2026-04-26 08:36 | 33.36026 | -7.58178 | 654 ft | 29 kts | 164° |
| 2026-04-26 08:36 | 33.35812 | -7.58107 | 654 ft | 33 kts | 163° |
| 2026-04-26 08:36 | 33.35576 | -7.58027 | 656 ft | 34 kts | 163° |
| 2026-04-26 08:37 | 33.35357 | -7.57952 | 659 ft | 25 kts | 163° |
| 2026-04-26 08:37 | 33.35252 | -7.57994 | 659 ft | 16 kts | 253° |
| 2026-04-26 08:37 | 33.35225 | -7.58124 | 658 ft | 16 kts | 254° |
| 2026-04-26 08:37 | 33.35198 | -7.58245 | 658 ft | 4 kts | 284° |
| 2026-04-26 08:38 | 33.35215 | -7.58259 | 658 ft | 4 kts | 327° |
| 2026-04-26 08:38 | 33.35359 | -7.58314 | 657 ft | 49 kts | 345° |
| 2026-04-26 08:38 | 33.35906 | -7.58500 | 655 ft | 112 kts | 343° |
| 2026-04-26 08:38 | 33.36841 | -7.58821 | 648 ft | 164 kts | 345° |
| 2026-04-26 08:39 | 33.38010 | -7.59219 | 989 ft | 181 kts | 345° |
| 2026-04-26 08:39 | 33.39187 | -7.59659 | 1844 ft | 169 kts | 347° |
| 2026-04-26 08:39 | 33.40325 | -7.59989 | 2337 ft | 175 kts | 355° |
| 2026-04-26 08:39 | 33.41582 | -7.60019 | 2656 ft | 185 kts | 8° |
| 2026-04-26 08:40 | 33.42886 | -7.59729 | 2929 ft | 199 kts | 18° |
| 2026-04-26 08:40 | 33.44236 | -7.59088 | 3240 ft | 213 kts | 30° |
| 2026-04-26 08:40 | 33.45464 | -7.58026 | 3602 ft | 225 kts | 44° |
| 2026-04-26 08:40 | 33.46548 | -7.56619 | 4048 ft | 235 kts | 50° |
| 2026-04-26 08:41 | 33.47585 | -7.55077 | 4629 ft | 240 kts | 52° |
| 2026-04-26 08:41 | 33.48618 | -7.53516 | 5190 ft | 245 kts | 51° |
| 2026-04-26 08:41 | 33.49698 | -7.51918 | 5786 ft | 248 kts | 51° |
| 2026-04-26 08:41 | 33.50796 | -7.50323 | 6356 ft | 252 kts | 50° |
| 2026-04-26 08:42 | 33.51925 | -7.48691 | 6950 ft | 256 kts | 50° |
| 2026-04-26 08:42 | 33.53059 | -7.47049 | 7548 ft | 260 kts | 50° |
| 2026-04-26 08:42 | 33.54208 | -7.45381 | 8129 ft | 264 kts | 50° |
| 2026-04-26 08:42 | 33.55391 | -7.43682 | 8700 ft | 269 kts | 48° |
| 2026-04-26 08:43 | 33.56293 | -7.42614 | 9071 ft | 273 kts | 38° |
| 2026-04-26 08:43 | 33.58607 | -7.41372 | 9585 ft | 288 kts | 10° |
| 2026-04-26 08:43 | 33.60627 | -7.41031 | 10064 ft | 297 kts | 5° |
| 2026-04-26 08:43 | 33.62709 | -7.40761 | 10506 ft | 308 kts | 6° |
| 2026-04-26 08:44 | 33.64905 | -7.40430 | 10883 ft | 322 kts | 7° |
| 2026-04-26 08:44 | 33.67177 | -7.40033 | 11210 ft | 337 kts | 8° |
| 2026-04-26 08:44 | 33.69550 | -7.39588 | 11541 ft | 352 kts | 8° |
| 2026-04-26 08:44 | 33.72010 | -7.39112 | 11825 ft | 367 kts | 8° |
| 2026-04-26 08:45 | 33.74582 | -7.38610 | 12260 ft | 377 kts | 9° |
| 2026-04-26 08:45 | 33.77203 | -7.38100 | 12867 ft | 382 kts | 9° |
| 2026-04-26 08:45 | 33.79831 | -7.37590 | 13570 ft | 383 kts | 9° |
| 2026-04-26 08:45 | 33.82497 | -7.37075 | 14237 ft | 387 kts | 9° |
| 2026-04-26 08:46 | 33.85177 | -7.36558 | 14852 ft | 391 kts | 9° |
| 2026-04-26 08:46 | 33.86976 | -7.36211 | 15302 ft | 393 kts | 9° |
| 2026-04-26 08:46 | 33.90648 | -7.35503 | 16123 ft | 399 kts | 9° |
| 2026-04-26 08:46 | 33.93398 | -7.34971 | 16758 ft | 403 kts | 9° |
| 2026-04-26 08:47 | 33.96191 | -7.34432 | 17342 ft | 408 kts | 9° |
| 2026-04-26 08:47 | 33.98996 | -7.33890 | 17943 ft | 411 kts | 9° |
| 2026-04-26 08:47 | 34.01812 | -7.33345 | 18488 ft | 416 kts | 9° |
| 2026-04-26 08:47 | 34.04708 | -7.32785 | 19110 ft | 418 kts | 9° |
| 2026-04-26 08:48 | 34.07582 | -7.32193 | 19665 ft | 422 kts | 11° |
| 2026-04-26 08:48 | 34.10440 | -7.31412 | 20217 ft | 426 kts | 15° |
| 2026-04-26 08:48 | 34.13253 | -7.30295 | 20766 ft | 429 kts | 21° |
| 2026-04-26 08:48 | 34.16032 | -7.28873 | 21332 ft | 432 kts | 24° |
| 2026-04-26 08:49 | 34.18722 | -7.27315 | 21811 ft | 436 kts | 26° |
| 2026-04-26 08:49 | 34.21448 | -7.25643 | 22374 ft | 438 kts | 27° |
| 2026-04-26 08:49 | 34.23222 | -7.24531 | 22700 ft | 440 kts | 27° |
| 2026-04-26 08:49 | 34.26868 | -7.22231 | 23319 ft | 445 kts | 27° |
| 2026-04-26 08:50 | 34.29606 | -7.20504 | 23851 ft | 447 kts | 27° |
| 2026-04-26 08:50 | 34.31458 | -7.19340 | 24161 ft | 450 kts | 27° |
| 2026-04-26 08:50 | 34.35189 | -7.17003 | 24783 ft | 454 kts | 27° |
| 2026-04-26 08:50 | 34.37985 | -7.15257 | 25295 ft | 456 kts | 26° |
| 2026-04-26 08:51 | 34.43681 | -7.11714 | 26212 ft | 462 kts | 26° |
| 2026-04-26 08:51 | 34.46513 | -7.09954 | 26733 ft | 463 kts | 26° |
| 2026-04-26 08:51 | 34.49401 | -7.08159 | 27137 ft | 466 kts | 26° |
| 2026-04-26 08:52 | 34.52259 | -7.06384 | 27552 ft | 468 kts | 26° |
| 2026-04-26 08:52 | 34.54191 | -7.05183 | 27938 ft | 467 kts | 26° |
| 2026-04-26 08:52 | 34.58036 | -7.02791 | 28848 ft | 462 kts | 26° |
| 2026-04-26 08:52 | 34.59960 | -7.01593 | 29199 ft | 462 kts | 26° |
| 2026-04-26 08:53 | 34.63764 | -6.99239 | 29930 ft | 459 kts | 26° |
| 2026-04-26 08:53 | 34.66607 | -6.97495 | 30467 ft | 457 kts | 26° |
| 2026-04-26 08:53 | 34.69424 | -6.95770 | 30969 ft | 455 kts | 26° |
| 2026-04-26 08:53 | 34.71323 | -6.94609 | 31279 ft | 455 kts | 26° |
| 2026-04-26 08:54 | 34.75105 | -6.92295 | 31818 ft | 454 kts | 26° |
| 2026-04-26 08:54 | 34.76972 | -6.91152 | 32138 ft | 453 kts | 25° |
| 2026-04-26 08:54 | 34.79791 | -6.89423 | 32619 ft | 451 kts | 25° |
| 2026-04-26 08:54 | 34.82590 | -6.87704 | 32987 ft | 452 kts | 25° |
| 2026-04-26 08:55 | 34.86299 | -6.85423 | 33548 ft | 450 kts | 25° |
| 2026-04-26 08:55 | 34.88180 | -6.84264 | 33821 ft | 449 kts | 25° |
| 2026-04-26 08:55 | 34.91852 | -6.82001 | 34304 ft | 448 kts | 25° |
| 2026-04-26 08:55 | 34.94656 | -6.80272 | 34548 ft | 449 kts | 25° |
| 2026-04-26 08:56 | 34.97416 | -6.78569 | 34828 ft | 449 kts | 25° |
| 2026-04-26 08:56 | 34.99268 | -6.77426 | 34992 ft | 449 kts | 25° |
| 2026-04-26 08:56 | 35.03004 | -6.75117 | 35327 ft | 449 kts | 25° |
| 2026-04-26 08:56 | 35.05796 | -6.73390 | 35544 ft | 450 kts | 25° |
| 2026-04-26 08:57 | 35.08566 | -6.71674 | 35803 ft | 449 kts | 25° |
| 2026-04-26 08:57 | 35.10418 | -6.70526 | 35939 ft | 449 kts | 25° |
| 2026-04-26 08:57 | 35.14148 | -6.68213 | 35969 ft | 451 kts | 25° |
| 2026-04-26 08:58 | 35.19700 | -6.64766 | 35974 ft | 448 kts | 25° |
| 2026-04-26 08:58 | 35.24341 | -6.61880 | 35977 ft | 449 kts | 25° |
| 2026-04-26 08:59 | 35.30828 | -6.57839 | 35965 ft | 448 kts | 25° |
| 2026-04-26 08:59 | 35.36372 | -6.54379 | 35970 ft | 447 kts | 25° |
| 2026-04-26 09:00 | 35.41877 | -6.50938 | 35978 ft | 446 kts | 25° |
| 2026-04-26 09:00 | 35.47407 | -6.47454 | 35974 ft | 447 kts | 25° |
| 2026-04-26 09:01 | 35.52897 | -6.43885 | 35991 ft | 446 kts | 25° |
| 2026-04-26 09:01 | 35.58362 | -6.40299 | 35983 ft | 447 kts | 25° |
| 2026-04-26 09:02 | 35.62920 | -6.37306 | 35991 ft | 446 kts | 25° |
| 2026-04-26 09:02 | 35.68412 | -6.33701 | 35985 ft | 446 kts | 26° |
| 2026-04-26 09:03 | 35.74785 | -6.29520 | 35994 ft | 445 kts | 26° |
| 2026-04-26 09:03 | 35.80225 | -6.25964 | 36023 ft | 445 kts | 25° |
| 2026-04-26 09:04 | 35.85703 | -6.22400 | 35999 ft | 446 kts | 25° |
| 2026-04-26 09:04 | 35.91176 | -6.18865 | 36016 ft | 443 kts | 25° |
| 2026-04-26 09:05 | 35.96659 | -6.15329 | 36009 ft | 445 kts | 25° |
| 2026-04-26 09:05 | 36.01231 | -6.12369 | 36010 ft | 444 kts | 25° |
| 2026-04-26 09:06 | 36.06678 | -6.08831 | 36035 ft | 442 kts | 25° |
| 2026-04-26 09:06 | 36.13009 | -6.04711 | 36040 ft | 442 kts | 25° |
| 2026-04-26 09:07 | 36.18456 | -6.01158 | 36035 ft | 439 kts | 25° |
| 2026-04-26 09:07 | 36.23647 | -5.97249 | 36023 ft | 443 kts | 33° |
| 2026-04-26 09:08 | 36.27595 | -5.93149 | 36038 ft | 445 kts | 40° |
| 2026-04-26 09:08 | 36.32732 | -5.86838 | 36038 ft | 444 kts | 43° |
| 2026-04-26 09:09 | 36.36304 | -5.82278 | 36050 ft | 445 kts | 43° |
| 2026-04-26 09:09 | 36.41346 | -5.75850 | 36038 ft | 445 kts | 43° |
| 2026-04-26 09:10 | 36.45667 | -5.70369 | 36049 ft | 445 kts | 43° |
| 2026-04-26 09:10 | 36.49995 | -5.64893 | 36053 ft | 444 kts | 43° |
| 2026-04-26 09:11 | 36.54328 | -5.59413 | 36057 ft | 445 kts | 43° |
| 2026-04-26 09:11 | 36.58649 | -5.53944 | 36061 ft | 445 kts | 43° |
| 2026-04-26 09:12 | 36.62973 | -5.48465 | 36059 ft | 445 kts | 43° |
| 2026-04-26 09:12 | 36.66606 | -5.43856 | 36089 ft | 447 kts | 43° |
| 2026-04-26 09:13 | 36.71648 | -5.37445 | 36066 ft | 444 kts | 43° |
| 2026-04-26 09:13 | 36.75254 | -5.32853 | 36072 ft | 444 kts | 43° |
| 2026-04-26 09:14 | 36.80260 | -5.26468 | 36067 ft | 444 kts | 43° |
| 2026-04-26 09:14 | 36.84578 | -5.20950 | 36079 ft | 443 kts | 44° |
| 2026-04-26 09:15 | 36.88855 | -5.15475 | 36081 ft | 444 kts | 44° |
| 2026-04-26 09:15 | 36.93169 | -5.09943 | 36086 ft | 445 kts | 44° |
| 2026-04-26 09:16 | 36.96769 | -5.05319 | 36091 ft | 444 kts | 44° |
| 2026-04-26 09:16 | 37.01035 | -4.99831 | 36082 ft | 443 kts | 44° |
| 2026-04-26 09:17 | 37.06410 | -4.93892 | 36095 ft | 440 kts | 31° |
| 2026-04-26 09:17 | 37.10918 | -4.90923 | 36092 ft | 437 kts | 23° |
| 2026-04-26 09:18 | 37.17472 | -4.87521 | 36083 ft | 437 kts | 20° |
| 2026-04-26 09:18 | 37.22165 | -4.85186 | 36097 ft | 438 kts | 20° |
| 2026-04-26 09:19 | 37.28772 | -4.81837 | 36085 ft | 439 kts | 21° |
| 2026-04-26 09:19 | 37.34396 | -4.78928 | 36080 ft | 438 kts | 21° |
| 2026-04-26 09:20 | 37.40022 | -4.75990 | 36077 ft | 439 kts | 21° |
| 2026-04-26 09:20 | 37.44730 | -4.73520 | 36090 ft | 438 kts | 21° |
| 2026-04-26 09:21 | 37.50337 | -4.70571 | 36086 ft | 439 kts | 22° |
| 2026-04-26 09:21 | 37.56914 | -4.67104 | 36083 ft | 438 kts | 22° |
| 2026-04-26 09:22 | 37.61591 | -4.64634 | 36095 ft | 440 kts | 22° |
| 2026-04-26 09:22 | 37.67241 | -4.61646 | 36094 ft | 440 kts | 22° |
| 2026-04-26 09:23 | 37.72875 | -4.58662 | 36092 ft | 439 kts | 22° |
| 2026-04-26 09:23 | 37.78491 | -4.55682 | 36090 ft | 439 kts | 22° |
| 2026-04-26 09:24 | 37.85068 | -4.52187 | 36097 ft | 439 kts | 22° |
| 2026-04-26 09:24 | 37.89737 | -4.49702 | 36087 ft | 440 kts | 22° |
| 2026-04-26 09:25 | 37.95368 | -4.46699 | 36064 ft | 440 kts | 22° |
| 2026-04-26 09:25 | 38.01001 | -4.43690 | 36074 ft | 440 kts | 22° |
| 2026-04-26 09:26 | 38.06673 | -4.40656 | 36076 ft | 440 kts | 22° |
| 2026-04-26 09:26 | 38.12290 | -4.37645 | 36078 ft | 441 kts | 22° |
| 2026-04-26 09:27 | 38.17947 | -4.34608 | 36088 ft | 441 kts | 23° |
| 2026-04-26 09:27 | 38.23597 | -4.31569 | 36102 ft | 442 kts | 23° |
| 2026-04-26 09:28 | 38.29243 | -4.28527 | 36096 ft | 441 kts | 23° |
| 2026-04-26 09:28 | 38.34913 | -4.25467 | 36100 ft | 442 kts | 23° |
| 2026-04-26 09:29 | 38.39896 | -4.22774 | 36092 ft | 440 kts | 23° |
| 2026-04-26 09:29 | 38.42921 | -4.21136 | 36117 ft | 442 kts | 23° |
| 2026-04-26 09:30 | 38.48587 | -4.18066 | 36121 ft | 444 kts | 23° |
| 2026-04-26 09:30 | 38.54256 | -4.14989 | 36111 ft | 442 kts | 23° |
| 2026-04-26 09:31 | 38.59925 | -4.11906 | 36107 ft | 443 kts | 23° |
| 2026-04-26 09:31 | 38.65586 | -4.08823 | 36099 ft | 442 kts | 23° |
| 2026-04-26 09:32 | 38.71222 | -4.05747 | 36117 ft | 442 kts | 23° |
| 2026-04-26 09:32 | 38.76900 | -4.02644 | 36126 ft | 443 kts | 23° |
| 2026-04-26 09:33 | 38.82550 | -3.99553 | 36116 ft | 443 kts | 23° |
| 2026-04-26 09:33 | 38.88227 | -3.96442 | 36128 ft | 445 kts | 23° |
| 2026-04-26 09:34 | 38.93917 | -3.93318 | 36132 ft | 444 kts | 23° |
| 2026-04-26 09:34 | 38.99580 | -3.90204 | 36126 ft | 444 kts | 23° |
| 2026-04-26 09:35 | 39.05270 | -3.87068 | 36131 ft | 444 kts | 23° |
| 2026-04-26 09:35 | 39.10894 | -3.83963 | 36141 ft | 442 kts | 23° |
| 2026-04-26 09:36 | 39.16569 | -3.80824 | 36136 ft | 442 kts | 23° |
| 2026-04-26 09:36 | 39.22219 | -3.77693 | 36138 ft | 443 kts | 23° |
| 2026-04-26 09:37 | 39.27911 | -3.74533 | 36141 ft | 444 kts | 23° |
| 2026-04-26 09:37 | 39.33532 | -3.71408 | 36143 ft | 442 kts | 23° |
| 2026-04-26 09:38 | 39.39172 | -3.68267 | 36143 ft | 443 kts | 23° |
| 2026-04-26 09:38 | 39.44843 | -3.65102 | 36140 ft | 443 kts | 23° |
| 2026-04-26 09:39 | 39.50482 | -3.61951 | 36146 ft | 442 kts | 23° |
| 2026-04-26 09:39 | 39.56139 | -3.58783 | 36146 ft | 443 kts | 23° |
| 2026-04-26 09:40 | 39.61758 | -3.55630 | 36140 ft | 443 kts | 23° |
| 2026-04-26 09:40 | 39.67403 | -3.52453 | 36142 ft | 442 kts | 23° |
| 2026-04-26 09:41 | 39.73036 | -3.49277 | 36141 ft | 441 kts | 23° |
| 2026-04-26 09:41 | 39.78559 | -3.45864 | 36138 ft | 442 kts | 29° |
| 2026-04-26 09:42 | 39.83814 | -3.41693 | 36160 ft | 443 kts | 32° |
| 2026-04-26 09:42 | 39.88934 | -3.37277 | 36152 ft | 441 kts | 33° |
| 2026-04-26 09:43 | 39.94016 | -3.32840 | 36163 ft | 442 kts | 34° |
| 2026-04-26 09:43 | 39.99127 | -3.28390 | 36164 ft | 441 kts | 34° |
| 2026-04-26 09:44 | 40.04237 | -3.23956 | 36163 ft | 442 kts | 33° |
| 2026-04-26 09:44 | 40.09319 | -3.19551 | 36158 ft | 441 kts | 33° |
| 2026-04-26 09:45 | 40.14302 | -3.14808 | 36153 ft | 442 kts | 38° |
| 2026-04-26 09:45 | 40.19035 | -3.09737 | 36158 ft | 442 kts | 39° |
| 2026-04-26 09:46 | 40.23764 | -3.04597 | 36162 ft | 442 kts | 39° |
| 2026-04-26 09:46 | 40.28516 | -2.99475 | 36161 ft | 442 kts | 39° |
| 2026-04-26 09:47 | 40.33252 | -2.94410 | 36168 ft | 442 kts | 39° |
| 2026-04-26 09:47 | 40.38009 | -2.89340 | 36171 ft | 442 kts | 39° |
| 2026-04-26 09:48 | 40.42810 | -2.84226 | 36179 ft | 444 kts | 39° |
| 2026-04-26 09:48 | 40.47575 | -2.79147 | 36177 ft | 443 kts | 39° |
| 2026-04-26 09:49 | 40.52351 | -2.74046 | 36182 ft | 442 kts | 39° |
| 2026-04-26 09:49 | 40.57147 | -2.68917 | 36188 ft | 443 kts | 39° |
| 2026-04-26 09:50 | 40.61925 | -2.63795 | 36182 ft | 443 kts | 39° |
| 2026-04-26 09:50 | 40.66695 | -2.58673 | 36193 ft | 444 kts | 39° |
| 2026-04-26 09:51 | 40.71462 | -2.53545 | 36194 ft | 444 kts | 39° |
| 2026-04-26 09:51 | 40.76245 | -2.48388 | 36201 ft | 444 kts | 39° |
| 2026-04-26 09:52 | 40.81015 | -2.43236 | 36202 ft | 445 kts | 39° |
| 2026-04-26 09:52 | 40.88158 | -2.35504 | 36217 ft | 445 kts | 39° |
| 2026-04-26 09:53 | 40.92923 | -2.30332 | 36217 ft | 444 kts | 39° |
| 2026-04-26 09:53 | 40.97710 | -2.25127 | 36219 ft | 445 kts | 39° |
| 2026-04-26 09:54 | 41.02463 | -2.19949 | 36218 ft | 445 kts | 39° |
| 2026-04-26 09:54 | 41.07259 | -2.14715 | 36221 ft | 445 kts | 39° |
| 2026-04-26 09:55 | 41.12018 | -2.09510 | 36212 ft | 446 kts | 39° |
| 2026-04-26 09:55 | 41.16783 | -2.04289 | 36203 ft | 444 kts | 39° |
| 2026-04-26 09:56 | 41.21545 | -1.99060 | 36202 ft | 445 kts | 39° |
| 2026-04-26 09:56 | 41.25437 | -1.94779 | 36193 ft | 446 kts | 39° |
| 2026-04-26 09:57 | 41.29408 | -1.90403 | 36195 ft | 445 kts | 39° |
| 2026-04-26 09:57 | 41.34139 | -1.85183 | 36196 ft | 445 kts | 39° |
| 2026-04-26 09:58 | 41.38905 | -1.79913 | 36190 ft | 445 kts | 39° |
| 2026-04-26 09:58 | 41.43653 | -1.74652 | 36193 ft | 445 kts | 39° |
| 2026-04-26 09:59 | 41.48381 | -1.69403 | 36187 ft | 445 kts | 39° |
| 2026-04-26 09:59 | 41.53962 | -1.63195 | 36174 ft | 447 kts | 39° |
| 2026-04-26 10:00 | 41.57938 | -1.58763 | 36168 ft | 447 kts | 38° |
| 2026-04-26 10:00 | 41.62670 | -1.53479 | 36168 ft | 446 kts | 39° |
| 2026-04-26 10:01 | 41.67454 | -1.48130 | 36162 ft | 453 kts | 39° |
| 2026-04-26 10:01 | 41.73030 | -1.41879 | 36161 ft | 450 kts | 39° |
| 2026-04-26 10:02 | 41.77018 | -1.37398 | 36151 ft | 449 kts | 39° |
| 2026-04-26 10:02 | 41.82622 | -1.31088 | 36143 ft | 452 kts | 39° |
| 2026-04-26 10:03 | 41.86607 | -1.26591 | 36169 ft | 452 kts | 39° |
| 2026-04-26 10:03 | 41.91378 | -1.21197 | 36156 ft | 449 kts | 39° |
| 2026-04-26 10:04 | 41.96170 | -1.15771 | 36151 ft | 451 kts | 39° |
| 2026-04-26 10:04 | 42.00966 | -1.10331 | 36142 ft | 453 kts | 39° |
| 2026-04-26 10:05 | 42.05757 | -1.04881 | 36144 ft | 451 kts | 39° |
| 2026-04-26 10:05 | 42.10554 | -0.99415 | 36157 ft | 453 kts | 39° |
| 2026-04-26 10:06 | 42.15355 | -0.93933 | 36151 ft | 454 kts | 39° |
| 2026-04-26 10:06 | 42.20954 | -0.87525 | 36157 ft | 453 kts | 39° |
| 2026-04-26 10:07 | 42.25744 | -0.82031 | 36154 ft | 453 kts | 39° |
| 2026-04-26 10:07 | 42.29737 | -0.77445 | 36153 ft | 454 kts | 39° |
| 2026-04-26 10:08 | 42.34515 | -0.71942 | 36166 ft | 449 kts | 39° |
| 2026-04-26 10:08 | 42.39257 | -0.66469 | 36176 ft | 450 kts | 39° |
| 2026-04-26 10:09 | 42.44016 | -0.60969 | 36172 ft | 451 kts | 39° |
| 2026-04-26 10:09 | 42.48718 | -0.55525 | 36186 ft | 446 kts | 39° |
| 2026-04-26 10:10 | 42.53442 | -0.50046 | 36189 ft | 450 kts | 39° |
| 2026-04-26 10:10 | 42.58217 | -0.44492 | 36200 ft | 449 kts | 39° |
| 2026-04-26 10:11 | 42.62931 | -0.38995 | 36208 ft | 448 kts | 39° |
| 2026-04-26 10:11 | 42.67627 | -0.33512 | 36228 ft | 441 kts | 39° |
| 2026-04-26 10:12 | 42.72316 | -0.28023 | 36239 ft | 447 kts | 39° |
| 2026-04-26 10:12 | 42.76983 | -0.22547 | 36249 ft | 445 kts | 40° |
| 2026-04-26 10:13 | 42.81411 | -0.16580 | 36237 ft | 450 kts | 47° |
| 2026-04-26 10:13 | 42.86087 | -0.09001 | 36230 ft | 450 kts | 50° |
| 2026-04-26 10:14 | 42.89357 | -0.03479 | 36224 ft | 449 kts | 50° |
| 2026-04-26 10:14 | 42.93261 | 0.03124 | 36215 ft | 447 kts | 50° |
| 2026-04-26 10:15 | 42.97133 | 0.09652 | 36203 ft | 446 kts | 50° |
| 2026-04-26 10:15 | 43.01058 | 0.16257 | 36202 ft | 446 kts | 49° |
| 2026-04-26 10:16 | 43.04948 | 0.22800 | 36213 ft | 447 kts | 49° |
| 2026-04-26 10:16 | 43.08870 | 0.29404 | 36189 ft | 449 kts | 50° |
| 2026-04-26 10:17 | 43.12786 | 0.36013 | 36191 ft | 449 kts | 49° |
| 2026-04-26 10:17 | 43.16732 | 0.42685 | 36183 ft | 450 kts | 49° |
| 2026-04-26 10:18 | 43.20632 | 0.49298 | 36172 ft | 447 kts | 49° |
| 2026-04-26 10:18 | 43.24558 | 0.55967 | 36172 ft | 448 kts | 49° |
| 2026-04-26 10:19 | 43.28443 | 0.62580 | 36170 ft | 448 kts | 49° |
| 2026-04-26 10:19 | 43.32348 | 0.69243 | 36167 ft | 450 kts | 50° |
| 2026-04-26 10:20 | 43.36271 | 0.75950 | 36167 ft | 451 kts | 50° |
| 2026-04-26 10:20 | 43.40177 | 0.82645 | 36165 ft | 450 kts | 50° |
| 2026-04-26 10:21 | 43.44101 | 0.89386 | 36167 ft | 452 kts | 50° |
| 2026-04-26 10:21 | 43.47988 | 0.96081 | 36165 ft | 450 kts | 50° |
| 2026-04-26 10:22 | 43.51874 | 1.02788 | 36171 ft | 449 kts | 50° |
| 2026-04-26 10:22 | 43.55774 | 1.09535 | 36197 ft | 449 kts | 50° |
| 2026-04-26 10:23 | 43.59631 | 1.16225 | 36203 ft | 447 kts | 49° |
| 2026-04-26 10:23 | 43.64151 | 1.24081 | 36210 ft | 449 kts | 49° |
| 2026-04-26 10:24 | 43.67382 | 1.29708 | 36215 ft | 450 kts | 49° |
| 2026-04-26 10:24 | 43.71182 | 1.36520 | 36195 ft | 448 kts | 51° |
| 2026-04-26 10:25 | 43.74885 | 1.43478 | 36198 ft | 451 kts | 51° |
| 2026-04-26 10:25 | 43.78554 | 1.50440 | 36191 ft | 449 kts | 51° |
| 2026-04-26 10:26 | 43.82228 | 1.57400 | 36167 ft | 450 kts | 51° |
| 2026-04-26 10:26 | 43.85907 | 1.64363 | 36166 ft | 450 kts | 51° |
| 2026-04-26 10:27 | 43.89629 | 1.71407 | 36166 ft | 452 kts | 52° |
| 2026-04-26 10:27 | 43.93913 | 1.79530 | 36167 ft | 450 kts | 52° |
| 2026-04-26 10:28 | 43.96994 | 1.85425 | 36167 ft | 453 kts | 52° |
| 2026-04-26 10:28 | 44.00577 | 1.92563 | 36168 ft | 450 kts | 53° |
| 2026-04-26 10:29 | 44.04112 | 1.99723 | 36165 ft | 452 kts | 53° |
| 2026-04-26 10:29 | 44.07666 | 2.06926 | 36159 ft | 451 kts | 53° |
| 2026-04-26 10:30 | 44.11195 | 2.14079 | 36166 ft | 451 kts | 53° |
| 2026-04-26 10:30 | 44.14733 | 2.21250 | 36167 ft | 453 kts | 53° |
| 2026-04-26 10:31 | 44.18294 | 2.28475 | 36159 ft | 454 kts | 53° |
| 2026-04-26 10:31 | 44.21854 | 2.35718 | 36159 ft | 454 kts | 53° |
| 2026-04-26 10:32 | 44.25393 | 2.42933 | 36165 ft | 453 kts | 53° |
| 2026-04-26 10:32 | 44.29549 | 2.51424 | 36209 ft | 454 kts | 53° |
| 2026-04-26 10:33 | 44.32491 | 2.57450 | 36206 ft | 452 kts | 53° |
| 2026-04-26 10:33 | 44.36006 | 2.64670 | 36212 ft | 453 kts | 53° |
| 2026-04-26 10:34 | 44.39561 | 2.71990 | 36185 ft | 454 kts | 54° |
| 2026-04-26 10:34 | 44.43082 | 2.79260 | 36175 ft | 453 kts | 54° |
| 2026-04-26 10:35 | 44.46605 | 2.86554 | 36177 ft | 453 kts | 54° |
| 2026-04-26 10:35 | 44.50121 | 2.93845 | 36176 ft | 454 kts | 54° |
| 2026-04-26 10:36 | 44.53623 | 3.01129 | 36179 ft | 453 kts | 53° |
| 2026-04-26 10:36 | 44.57160 | 3.08500 | 36180 ft | 455 kts | 54° |
| 2026-04-26 10:37 | 44.60680 | 3.15854 | 36178 ft | 455 kts | 54° |
| 2026-04-26 10:37 | 44.63970 | 3.23359 | 36181 ft | 457 kts | 58° |
| 2026-04-26 10:38 | 44.67051 | 3.31163 | 36187 ft | 459 kts | 59° |
| 2026-04-26 10:38 | 44.70101 | 3.39007 | 36188 ft | 457 kts | 59° |
| 2026-04-26 10:39 | 44.73165 | 3.46831 | 36195 ft | 456 kts | 59° |
| 2026-04-26 10:39 | 44.76248 | 3.54652 | 36189 ft | 459 kts | 59° |
| 2026-04-26 10:40 | 44.79340 | 3.62479 | 36204 ft | 457 kts | 59° |
| 2026-04-26 10:40 | 44.82435 | 3.70310 | 36182 ft | 460 kts | 59° |
| 2026-04-26 10:41 | 44.85556 | 3.78225 | 36186 ft | 460 kts | 59° |
| 2026-04-26 10:41 | 44.89158 | 3.87384 | 36189 ft | 461 kts | 60° |
| 2026-04-26 10:42 | 44.91738 | 3.93962 | 36188 ft | 460 kts | 60° |
| 2026-04-26 10:42 | 44.94819 | 4.01837 | 36198 ft | 460 kts | 59° |
| 2026-04-26 10:43 | 44.97893 | 4.09718 | 36194 ft | 459 kts | 59° |
| 2026-04-26 10:43 | 45.00982 | 4.17656 | 36182 ft | 461 kts | 60° |
| 2026-04-26 10:44 | 45.04053 | 4.25572 | 36200 ft | 461 kts | 60° |
| 2026-04-26 10:44 | 45.07112 | 4.33482 | 36181 ft | 460 kts | 60° |
| 2026-04-26 10:45 | 45.10167 | 4.41403 | 36184 ft | 461 kts | 60° |
| 2026-04-26 10:45 | 45.13234 | 4.49377 | 36190 ft | 462 kts | 60° |
| 2026-04-26 10:46 | 45.16288 | 4.57340 | 36170 ft | 461 kts | 60° |
| 2026-04-26 10:46 | 45.19339 | 4.65320 | 36176 ft | 463 kts | 61° |
| 2026-04-26 10:47 | 45.22404 | 4.73360 | 36144 ft | 462 kts | 61° |
| 2026-04-26 10:47 | 45.25445 | 4.81359 | 36160 ft | 463 kts | 61° |
| 2026-04-26 10:48 | 45.28487 | 4.89380 | 36161 ft | 464 kts | 61° |
| 2026-04-26 10:48 | 45.31535 | 4.97436 | 36166 ft | 463 kts | 61° |
| 2026-04-26 10:49 | 45.34573 | 5.05498 | 36168 ft | 463 kts | 61° |
| 2026-04-26 10:49 | 45.37593 | 5.13540 | 36163 ft | 464 kts | 61° |
| 2026-04-26 10:50 | 45.40626 | 5.21637 | 36189 ft | 465 kts | 61° |
| 2026-04-26 10:50 | 45.43653 | 5.29742 | 36190 ft | 464 kts | 61° |
| 2026-04-26 10:51 | 45.48327 | 5.41788 | 36186 ft | 463 kts | 56° |
| 2026-04-26 10:52 | 45.52450 | 5.48776 | 36175 ft | 462 kts | 43° |
| 2026-04-26 10:52 | 45.57178 | 5.54943 | 36160 ft | 461 kts | 39° |
| 2026-04-26 10:53 | 45.62009 | 5.60905 | 36160 ft | 461 kts | 39° |
| 2026-04-26 10:53 | 45.66855 | 5.66936 | 36169 ft | 464 kts | 40° |
| 2026-04-26 10:54 | 45.74046 | 5.76063 | 36153 ft | 462 kts | 41° |
| 2026-04-26 10:54 | 45.78852 | 5.82219 | 36154 ft | 463 kts | 40° |
| 2026-04-26 10:55 | 45.83627 | 5.88358 | 36192 ft | 462 kts | 41° |
| 2026-04-26 10:55 | 45.88364 | 5.94467 | 36174 ft | 461 kts | 41° |
| 2026-04-26 10:56 | 45.93116 | 6.00612 | 36160 ft | 463 kts | 41° |
| 2026-04-26 10:56 | 45.97883 | 6.06794 | 36175 ft | 462 kts | 41° |
| 2026-04-26 10:57 | 46.02660 | 6.13002 | 36165 ft | 464 kts | 41° |
| 2026-04-26 10:57 | 46.07393 | 6.19324 | 36165 ft | 464 kts | 44° |
| 2026-04-26 10:58 | 46.11556 | 6.26358 | 36175 ft | 464 kts | 52° |
| 2026-04-26 10:58 | 46.15315 | 6.33873 | 36184 ft | 464 kts | 54° |
| 2026-04-26 10:59 | 46.18989 | 6.41540 | 36204 ft | 466 kts | 54° |
| 2026-04-26 10:59 | 46.22643 | 6.49184 | 36238 ft | 467 kts | 54° |
| 2026-04-26 11:00 | 46.26328 | 6.56860 | 36218 ft | 465 kts | 54° |
| 2026-04-26 11:00 | 46.30028 | 6.64549 | 36237 ft | 467 kts | 53° |
| 2026-04-26 11:01 | 46.33728 | 6.72237 | 36228 ft | 467 kts | 54° |
| 2026-04-26 11:01 | 46.37438 | 6.79962 | 36220 ft | 467 kts | 54° |
| 2026-04-26 11:02 | 46.41125 | 6.87653 | 36225 ft | 467 kts | 54° |
| 2026-04-26 11:02 | 46.44839 | 6.95424 | 36230 ft | 469 kts | 54° |
| 2026-04-26 11:03 | 46.48540 | 7.03193 | 36235 ft | 469 kts | 54° |
| 2026-04-26 11:03 | 46.50378 | 7.07059 | 35918 ft | 469 kts | 54° |
| 2026-04-26 11:03 | 46.52220 | 7.10939 | 35260 ft | 472 kts | 54° |
| 2026-04-26 11:04 | 46.54086 | 7.14870 | 34483 ft | 475 kts | 54° |
| 2026-04-26 11:04 | 46.55983 | 7.18788 | 33637 ft | 477 kts | 53° |
| 2026-04-26 11:04 | 46.58004 | 7.22613 | 32779 ft | 478 kts | 49° |
| 2026-04-26 11:04 | 46.60229 | 7.26141 | 31955 ft | 478 kts | 44° |
| 2026-04-26 11:05 | 46.62625 | 7.29446 | 31094 ft | 479 kts | 40° |
| 2026-04-26 11:05 | 46.65128 | 7.32646 | 30176 ft | 480 kts | 39° |
| 2026-04-26 11:05 | 46.67665 | 7.35776 | 29255 ft | 482 kts | 38° |
| 2026-04-26 11:05 | 46.70221 | 7.38893 | 28260 ft | 477 kts | 38° |
| 2026-04-26 11:06 | 46.72752 | 7.41986 | 27542 ft | 472 kts | 38° |
| 2026-04-26 11:06 | 46.75217 | 7.45029 | 26904 ft | 467 kts | 39° |
| 2026-04-26 11:06 | 46.77652 | 7.48172 | 26187 ft | 464 kts | 42° |
| 2026-04-26 11:06 | 46.79859 | 7.51480 | 25505 ft | 450 kts | 46° |
| 2026-04-26 11:07 | 46.81857 | 7.54849 | 24854 ft | 438 kts | 49° |
| 2026-04-26 11:07 | 46.83783 | 7.58317 | 24211 ft | 442 kts | 50° |
| 2026-04-26 11:07 | 46.85682 | 7.61840 | 23516 ft | 443 kts | 50° |
| 2026-04-26 11:07 | 46.87564 | 7.65370 | 22858 ft | 439 kts | 51° |
| 2026-04-26 11:08 | 46.89440 | 7.68891 | 22183 ft | 436 kts | 51° |
| 2026-04-26 11:08 | 46.91284 | 7.72351 | 21526 ft | 433 kts | 51° |
| 2026-04-26 11:08 | 46.93126 | 7.75794 | 20867 ft | 430 kts | 51° |
| 2026-04-26 11:08 | 46.94969 | 7.79232 | 20199 ft | 427 kts | 51° |
| 2026-04-26 11:09 | 46.96773 | 7.82589 | 19551 ft | 424 kts | 51° |
| 2026-04-26 11:09 | 46.98587 | 7.85961 | 18886 ft | 421 kts | 51° |
| 2026-04-26 11:09 | 47.00406 | 7.89346 | 18221 ft | 418 kts | 51° |
| 2026-04-26 11:09 | 47.02187 | 7.92661 | 17579 ft | 416 kts | 51° |
| 2026-04-26 11:10 | 47.03969 | 7.95980 | 16923 ft | 413 kts | 51° |
| 2026-04-26 11:10 | 47.05724 | 7.99239 | 16230 ft | 408 kts | 50° |
| 2026-04-26 11:10 | 47.07525 | 8.02387 | 15588 ft | 391 kts | 47° |
| 2026-04-26 11:10 | 47.09369 | 8.05204 | 14979 ft | 375 kts | 44° |
| 2026-04-26 11:11 | 47.11208 | 8.07795 | 14352 ft | 368 kts | 42° |
| 2026-04-26 11:11 | 47.13094 | 8.10364 | 13779 ft | 374 kts | 42° |
| 2026-04-26 11:11 | 47.14996 | 8.12946 | 13157 ft | 365 kts | 42° |
| 2026-04-26 11:11 | 47.16783 | 8.15403 | 12866 ft | 343 kts | 43° |
| 2026-04-26 11:12 | 47.18466 | 8.17743 | 12579 ft | 324 kts | 43° |
| 2026-04-26 11:12 | 47.20128 | 8.19959 | 12162 ft | 329 kts | 38° |
| 2026-04-26 11:12 | 47.22086 | 8.21703 | 11646 ft | 329 kts | 20° |
| 2026-04-26 11:12 | 47.24294 | 8.22283 | 11187 ft | 316 kts | 358° |
| 2026-04-26 11:13 | 47.26467 | 8.21773 | 10810 ft | 321 kts | 343° |
| 2026-04-26 11:13 | 47.28534 | 8.20629 | 10566 ft | 309 kts | 336° |
| 2026-04-26 11:13 | 47.30393 | 8.19303 | 10455 ft | 287 kts | 333° |
| 2026-04-26 11:13 | 47.32042 | 8.17807 | 10339 ft | 277 kts | 318° |
| 2026-04-26 11:14 | 47.33230 | 8.15515 | 10116 ft | 284 kts | 298° |
| 2026-04-26 11:14 | 47.34030 | 8.12872 | 9783 ft | 283 kts | 292° |
| 2026-04-26 11:14 | 47.34737 | 8.10195 | 9528 ft | 277 kts | 292° |
| 2026-04-26 11:14 | 47.35474 | 8.07618 | 9259 ft | 273 kts | 295° |
| 2026-04-26 11:15 | 47.36340 | 8.05141 | 9006 ft | 269 kts | 309° |
| 2026-04-26 11:15 | 47.37774 | 8.03539 | 8753 ft | 259 kts | 342° |
| 2026-04-26 11:15 | 47.39522 | 8.03251 | 8521 ft | 251 kts | 6° |
| 2026-04-26 11:15 | 47.41244 | 8.03553 | 8281 ft | 247 kts | 8° |
| 2026-04-26 11:16 | 47.42932 | 8.03782 | 8189 ft | 237 kts | 5° |
| 2026-04-26 11:16 | 47.44601 | 8.03899 | 8016 ft | 246 kts | 3° |
| 2026-04-26 11:16 | 47.46301 | 8.03963 | 7944 ft | 242 kts | 2° |
| 2026-04-26 11:16 | 47.47990 | 8.04015 | 7953 ft | 245 kts | 4° |
| 2026-04-26 11:17 | 47.49672 | 8.04386 | 7947 ft | 243 kts | 21° |
| 2026-04-26 11:17 | 47.51049 | 8.05812 | 7980 ft | 242 kts | 53° |
| 2026-04-26 11:17 | 47.51835 | 8.07951 | 7824 ft | 237 kts | 67° |
| 2026-04-26 11:17 | 47.52460 | 8.10211 | 7481 ft | 239 kts | 67° |
| 2026-04-26 11:18 | 47.53095 | 8.12454 | 7198 ft | 237 kts | 66° |
| 2026-04-26 11:18 | 47.53754 | 8.14688 | 6836 ft | 237 kts | 66° |
| 2026-04-26 11:18 | 47.54427 | 8.16915 | 6574 ft | 232 kts | 65° |
| 2026-04-26 11:18 | 47.55077 | 8.19057 | 6478 ft | 222 kts | 65° |
| 2026-04-26 11:19 | 47.55686 | 8.21070 | 6386 ft | 212 kts | 65° |
| 2026-04-26 11:19 | 47.56281 | 8.23041 | 6137 ft | 210 kts | 65° |
| 2026-04-26 11:19 | 47.56888 | 8.25050 | 5822 ft | 212 kts | 65° |
| 2026-04-26 11:19 | 47.57484 | 8.27012 | 5557 ft | 210 kts | 65° |
| 2026-04-26 11:20 | 47.58076 | 8.28968 | 5295 ft | 204 kts | 65° |
| 2026-04-26 11:20 | 47.58640 | 8.30852 | 5154 ft | 194 kts | 65° |
| 2026-04-26 11:20 | 47.59166 | 8.32607 | 5013 ft | 186 kts | 65° |
| 2026-04-26 11:20 | 47.59688 | 8.34361 | 4718 ft | 182 kts | 66° |
| 2026-04-26 11:21 | 47.59990 | 8.36165 | 4389 ft | 182 kts | 91° |
| 2026-04-26 11:21 | 47.59565 | 8.37894 | 4084 ft | 186 kts | 126° |
| 2026-04-26 11:21 | 47.58657 | 8.39260 | 3980 ft | 184 kts | 133° |
| 2026-04-26 11:21 | 47.57731 | 8.40593 | 3930 ft | 189 kts | 133° |
| 2026-04-26 11:22 | 47.56771 | 8.41940 | 3666 ft | 191 kts | 134° |
| 2026-04-26 11:22 | 47.55783 | 8.43277 | 3402 ft | 190 kts | 134° |
| 2026-04-26 11:22 | 47.54836 | 8.44565 | 3182 ft | 178 kts | 134° |
| 2026-04-26 11:22 | 47.53937 | 8.45803 | 2917 ft | 174 kts | 134° |
| 2026-04-26 11:23 | 47.53059 | 8.46999 | 2731 ft | 163 kts | 134° |
| 2026-04-26 11:23 | 47.52244 | 8.48111 | 2451 ft | 160 kts | 134° |
| 2026-04-26 11:23 | 47.51454 | 8.49193 | 2257 ft | 150 kts | 134° |
| 2026-04-26 11:23 | 47.50684 | 8.50244 | 2081 ft | 161 kts | 133° |
| 2026-04-26 11:24 | 47.49864 | 8.51365 | 1865 ft | 158 kts | 134° |
| 2026-04-26 11:24 | 47.49060 | 8.52452 | 1657 ft | 152 kts | 133° |
| 2026-04-26 11:24 | 47.48299 | 8.53500 | 1428 ft | 150 kts | 134° |
| 2026-04-26 11:24 | 47.47602 | 8.54459 | 1383 ft | 108 kts | 139° |
| 2026-04-26 11:25 | 47.47210 | 8.54977 | 1384 ft | 49 kts | 137° |
| 2026-04-26 11:25 | 47.46955 | 8.55324 | 1384 ft | 46 kts | 137° |
| 2026-04-26 11:25 | 47.46748 | 8.55583 | 1386 ft | 34 kts | 148° |
| 2026-04-26 11:25 | 47.46554 | 8.55695 | 1388 ft | 28 kts | 166° |
| 2026-04-26 11:26 | 47.46392 | 8.55751 | 1389 ft | 17 kts | 156° |
| 2026-04-26 11:26 | 47.46322 | 8.55837 | 1391 ft | 11 kts | 137° |
| 2026-04-26 11:26 | 47.46290 | 8.55880 | 1392 ft | 0 kts | 137° |
| 2026-04-26 11:26 | 47.46287 | 8.55883 | 1392 ft | 2 kts | 137° |
| 2026-04-26 11:27 | 47.46252 | 8.55934 | 1394 ft | 10 kts | 136° |
| 2026-04-26 11:27 | 47.46179 | 8.56002 | 1397 ft | 13 kts | 175° |
| 2026-04-26 11:27 | 47.46088 | 8.55988 | 1397 ft | 12 kts | 186° |
| 2026-04-26 11:27 | 47.45999 | 8.55975 | 1396 ft | 12 kts | 185° |
| 2026-04-26 11:28 | 47.45918 | 8.55950 | 1398 ft | 11 kts | 198° |
| 2026-04-26 11:28 | 47.45850 | 8.55910 | 1398 ft | 10 kts | 201° |
| 2026-04-26 11:28 | 47.45785 | 8.55877 | 1398 ft | 9 kts | 187° |
| 2026-04-26 11:28 | 47.45718 | 8.55865 | 1397 ft | 9 kts | 184° |
| 2026-04-26 11:29 | 47.45647 | 8.55841 | 1397 ft | 10 kts | 227° |
| 2026-04-26 11:29 | 47.45645 | 8.55732 | 1395 ft | 11 kts | 277° |
| 2026-04-26 11:29 | 47.45656 | 8.55600 | 1393 ft | 14 kts | 276° |
| 2026-04-26 11:29 | 47.45667 | 8.55446 | 1389 ft | 16 kts | 276° |
| 2026-04-26 11:30 | 47.45615 | 8.55344 | 1388 ft | 15 kts | 161° |
| 2026-04-26 11:30 | 47.45527 | 8.55406 | 1391 ft | 12 kts | 153° |
| 2026-04-26 11:30 | 47.45457 | 8.55455 | 1393 ft | 10 kts | 155° |
| 2026-04-26 11:30 | 47.45385 | 8.55503 | 1394 ft | 12 kts | 154° |
| 2026-04-26 11:31 | 47.45312 | 8.55554 | 1394 ft | 11 kts | 154° |
| 2026-04-26 11:31 | 47.45271 | 8.55633 | 1395 ft | 9 kts | 97° |
| 2026-04-26 11:31 | 47.45266 | 8.55711 | 1397 ft | 5 kts | 95° |
| 2026-04-26 11:31 | 47.45262 | 8.55765 | 1399 ft | 5 kts | 95° |
| 2026-04-26 11:32 | 47.45258 | 8.55831 | 1400 ft | 7 kts | 95° |
| 2026-04-26 11:32 | 47.45254 | 8.55883 | 1402 ft | 3 kts | 95° |
| 2026-04-26 11:32 | 47.45251 | 8.55898 | 1403 ft | 0 kts | 130° |
| 2026-04-26 11:32 | 47.45246 | 8.55901 | 1403 ft | 2 kts | 153° |
| 2026-04-26 11:33 | 47.45213 | 8.55905 | 1403 ft | 6 kts | 185° |
| 2026-04-26 11:33 | 47.45173 | 8.55899 | 1403 ft | 3 kts | 185° |
| 2026-04-26 11:33 | 47.45161 | 8.55897 | 1403 ft | 0 kts | 185° |